Jansen, Nebraska
Current Conditions -  °F | °C
As of 9:35 AM on Friday 28 Nov 2014 (Local Time) from KBIE Reporting Station
Clear Clear  
Wind Chill: 32°   Ceiling: Unl
Heat Index: 38°   Visibility: 10mi
Dew Point: 28°   Wind: 9mph
Humidity: 67%   Direction: 200°SSW
Pressure: 29.87"   Gusts: NA
Location:  40.19°N, 97.08°W
Report Text: KBIE 281535Z AUTO 20008KT 10SM CLR 03/M02 A2987 RMK AO2 T00341022
Loading
Personal Weather Stations






























Interactive Weather Map New forecast layout! Learn more

10-Day Weather Forecast

Advertisements
Track Severe Weather on mobile